Time;durP1;ratioP1;P1;durP2;ratioP2;P2;SDS_P1;SDS_P2;PMS_P1;PMS_P2;Temp;Humidity;BMP_temperature;BMP_pressure;BME280_temperature;BME280_humidity;BME280_pressure;Samples;Min_cycle;Max_cycle;Signal;HPM_P1;HPM_P2
2021/11/05 00:00:05;;;;;;;6.38;4.32;;;;;;;7.56;65.27;97378.53;10525208;28;20047;-76
2021/11/05 00:05:41;;;;;;;5.15;3.90;;;;;;;7.56;65.30;97384.06;10571407;28;20038;-77
2021/11/05 00:11:03;;;;;;;6.32;4.60;;;;;;;7.57;65.28;97393.13;10532390;28;20463;-77
2021/11/05 00:16:24;;;;;;;6.00;4.30;;;;;;;7.49;65.00;97407.16;10541226;28;20047;-76
2021/11/05 00:21:46;;;;;;;5.82;4.93;;;;;;;7.24;65.27;97406.66;10509700;28;20074;-76
2021/11/05 00:27:08;;;;;;;6.00;4.78;;;;;;;6.99;65.48;97412.44;10540286;28;20039;-78
2021/11/05 00:32:30;;;;;;;7.07;4.97;;;;;;;7.03;65.71;97419.03;10540304;28;20430;-76
2021/11/05 00:37:52;;;;;;;6.32;4.75;;;;;;;7.17;65.63;97425.66;10539074;28;20039;-76
2021/11/05 00:43:14;;;;;;;6.78;4.85;;;;;;;7.26;65.69;97421.44;10539553;28;20046;-77
2021/11/05 00:48:36;;;;;;;4.45;4.05;;;;;;;7.23;65.72;97433.69;10539749;28;20040;-78
2021/11/05 00:53:58;;;;;;;6.00;4.45;;;;;;;7.10;65.30;97434.81;10539533;28;20059;-77
2021/11/05 00:59:20;;;;;;;6.63;4.65;;;;;;;7.07;65.97;97424.88;10538889;28;20063;-77
2021/11/05 01:04:41;;;;;;;6.38;4.97;;;;;;;7.05;65.69;97440.66;10539202;28;20039;-77
2021/11/05 01:10:04;;;;;;;6.70;5.03;;;;;;;6.99;65.81;97446.47;10538970;28;20044;-77
2021/11/05 01:15:25;;;;;;;7.53;5.88;;;;;;;6.96;65.59;97450.41;10511743;28;20051;-77
2021/11/05 01:20:48;;;;;;;6.63;4.97;;;;;;;7.04;66.11;97453.78;10539043;28;20433;-75
2021/11/05 01:26:09;;;;;;;6.50;4.88;;;;;;;7.08;65.70;97462.44;10538473;28;20550;-79
2021/11/05 01:31:32;;;;;;;7.90;5.13;;;;;;;7.15;65.81;97453.25;10524832;28;20069;-77
2021/11/05 01:36:53;;;;;;;6.53;4.60;;;;;;;7.25;65.78;97460.91;10524695;28;20059;-77
2021/11/05 01:42:15;;;;;;;6.22;4.80;;;;;;;7.30;65.66;97452.28;10541346;28;20587;-78
2021/11/05 01:47:39;;;;;;;6.47;5.00;;;;;;;7.33;65.59;97456.66;10525624;28;20036;-76
2021/11/05 01:53:00;;;;;;;5.50;4.82;;;;;;;7.36;65.76;97457.56;10574437;28;20118;-77
2021/11/05 01:58:24;;;;;;;4.95;4.45;;;;;;;7.39;65.41;97451.56;10546287;28;20061;-75
2021/11/05 02:03:46;;;;;;;6.03;4.80;;;;;;;7.43;65.47;97465.78;10532691;28;20055;-77
2021/11/05 02:09:08;;;;;;;6.32;4.63;;;;;;;7.45;65.39;97463.16;10560025;28;20305;-79
2021/11/05 02:14:30;;;;;;;6.13;3.88;;;;;;;7.46;65.36;97469.44;10545674;28;20252;-78
2021/11/05 02:19:52;;;;;;;5.97;4.00;;;;;;;7.45;65.23;97470.75;10545060;28;20497;-78
2021/11/05 02:25:14;;;;;;;5.72;4.25;;;;;;;7.47;65.13;97476.44;10545281;28;20062;-78
2021/11/05 02:30:35;;;;;;;5.65;3.50;;;;;;;7.47;65.24;97484.78;10531179;28;20063;-77
2021/11/05 02:35:57;;;;;;;5.80;4.20;;;;;;;7.49;65.27;97486.97;10544880;28;20036;-76
2021/11/05 02:41:20;;;;;;;5.05;3.20;;;;;;;7.52;65.05;97483.75;10530849;28;20028;-76
2021/11/05 02:46:41;;;;;;;4.50;3.60;;;;;;;7.53;65.24;97490.81;10544382;28;20110;-77
2021/11/05 02:52:03;;;;;;;4.20;3.28;;;;;;;7.51;65.32;97487.84;10544387;28;20051;-77
2021/11/05 02:57:25;;;;;;;4.25;3.45;;;;;;;7.46;65.12;97509.03;10544056;28;20035;-76
2021/11/05 03:02:46;;;;;;;4.18;3.10;;;;;;;7.44;65.11;97516.50;10542872;28;20078;-77
2021/11/05 03:08:08;;;;;;;3.28;2.95;;;;;;;7.50;64.90;97522.50;10543505;28;20031;-77
2021/11/05 03:13:29;;;;;;;3.67;3.28;;;;;;;7.53;65.09;97531.69;10542708;28;20046;-77
2021/11/05 03:18:51;;;;;;;4.03;3.15;;;;;;;7.55;64.86;97521.50;10557601;28;20105;-77
2021/11/05 03:24:13;;;;;;;3.42;2.80;;;;;;;7.53;65.10;97528.91;10543082;28;20040;-77
2021/11/05 03:29:35;;;;;;;3.70;3.05;;;;;;;7.52;65.17;97533.75;10542610;28;20038;-77
2021/11/05 03:34:56;;;;;;;4.25;3.10;;;;;;;7.57;65.21;97541.09;10528673;28;20039;-77
2021/11/05 03:40:19;;;;;;;5.80;3.40;;;;;;;7.54;65.24;97542.25;10542635;28;20031;-80
2021/11/05 03:45:42;;;;;;;4.35;3.00;;;;;;;7.57;65.50;97546.66;10529067;28;20040;-76
2021/11/05 03:51:03;;;;;;;3.58;3.00;;;;;;;7.58;65.10;97556.44;10555984;28;20554;-76
2021/11/05 03:56:25;;;;;;;4.18;3.50;;;;;;;7.59;65.12;97566.25;10541819;28;20061;-77
2021/11/05 04:01:47;;;;;;;4.65;3.30;;;;;;;7.52;64.87;97572.63;10541393;28;20043;-77
2021/11/05 04:07:09;;;;;;;3.78;3.17;;;;;;;7.44;65.42;97585.91;10527700;28;20039;-78
2021/11/05 04:12:31;;;;;;;3.53;3.15;;;;;;;7.45;65.66;97585.34;10541152;28;20134;-77
2021/11/05 04:17:52;;;;;;;5.28;3.13;;;;;;;7.44;65.58;97588.69;10488805;28;20052;-78
2021/11/05 04:23:17;;;;;;;3.63;3.28;;;;;;;7.47;65.61;97602.16;10512350;28;20490;-76
2021/11/05 04:28:38;;;;;;;3.35;3.00;;;;;;;7.47;65.56;97607.72;10482468;28;20450;-78
2021/11/05 04:34:00;;;;;;;4.35;2.90;;;;;;;7.47;65.52;97618.81;10512532;28;20463;-76
2021/11/05 04:39:24;;;;;;;4.00;2.90;;;;;;;7.49;65.42;97618.25;10498116;28;20036;-78
2021/11/05 04:44:46;;;;;;;3.13;2.50;;;;;;;7.45;65.05;97613.13;10485506;28;20046;-76
2021/11/05 04:50:08;;;;;;;5.60;3.05;;;;;;;7.34;65.57;97624.03;10484572;28;20474;-77
2021/11/05 04:55:29;;;;;;;4.18;3.45;;;;;;;7.28;65.84;97612.44;10511600;28;20044;-77
2021/11/05 05:00:51;;;;;;;3.58;2.90;;;;;;;7.18;65.56;97618.66;10497465;28;20123;-77
2021/11/05 05:06:12;;;;;;;4.10;3.45;;;;;;;7.10;65.97;97617.28;10497149;28;20445;-76
2021/11/05 05:11:34;;;;;;;3.85;3.38;;;;;;;6.93;65.86;97626.38;10497625;28;20044;-81
2021/11/05 05:16:55;;;;;;;4.28;3.40;;;;;;;6.77;66.45;97631.38;10510994;28;20051;-77
2021/11/05 05:22:17;;;;;;;5.35;3.08;;;;;;;6.70;66.22;97634.22;10482241;28;20119;-76
2021/11/05 05:27:41;;;;;;;4.38;3.40;;;;;;;6.60;66.71;97643.19;10497354;28;20051;-77
2021/11/05 05:33:04;;;;;;;4.00;3.47;;;;;;;6.52;67.03;97653.63;10483304;28;20044;-77
2021/11/05 05:38:26;;;;;;;4.45;3.33;;;;;;;6.49;66.91;97663.09;10508357;28;20047;-76
2021/11/05 05:43:47;;;;;;;5.90;3.50;;;;;;;6.43;67.19;97668.13;10509197;28;20040;-78
2021/11/05 05:49:08;;;;;;;5.30;3.80;;;;;;;6.40;67.40;97672.06;10496312;28;20036;-78
2021/11/05 05:54:30;;;;;;;5.97;4.10;;;;;;;6.38;67.80;97680.22;10481951;28;20064;-79
2021/11/05 05:59:51;;;;;;;3.70;3.40;;;;;;;6.39;67.60;97687.22;10510104;28;20035;-80
2021/11/05 06:05:13;;;;;;;5.03;3.60;;;;;;;6.40;67.77;97704.59;10496401;28;20093;-78
2021/11/05 06:10:36;;;;;;;4.53;3.78;;;;;;;6.42;67.78;97705.50;10509967;28;20043;-77
2021/11/05 06:15:58;;;;;;;5.68;3.67;;;;;;;6.45;68.11;97723.75;10518002;28;20051;-78
2021/11/05 06:21:24;;;;;;;5.00;3.70;;;;;;;6.57;67.81;97733.09;10537443;28;20140;-77
2021/11/05 06:26:45;;;;;;;3.85;3.17;;;;;;;7.24;66.86;97743.34;10551786;28;20043;-81
2021/11/05 06:32:07;;;;;;;3.72;2.90;;;;;;;7.22;65.97;97759.09;10537045;28;20434;-77
2021/11/05 06:37:29;;;;;;;4.63;2.80;;;;;;;7.20;66.27;97758.94;10543515;28;20063;-77
2021/11/05 06:42:51;;;;;;;3.97;2.78;;;;;;;7.40;65.94;97766.09;10544564;28;20039;-79
2021/11/05 06:48:13;;;;;;;2.90;2.35;;;;;;;7.79;65.56;97777.47;10530897;28;20126;-77
2021/11/05 06:53:34;;;;;;;2.95;1.90;;;;;;;8.11;65.11;97793.19;10558451;28;20127;-79
2021/11/05 06:58:57;;;;;;;2.55;1.90;;;;;;;9.69;63.67;97801.47;10585225;27;20092;-78
2021/11/05 07:04:20;;;;;;;2.50;1.63;;;;;;;10.71;60.40;97814.91;10586430;27;20050;-78
2021/11/05 07:09:41;;;;;;;2.05;1.85;;;;;;;10.01;60.37;97826.06;10569009;27;20055;-80
2021/11/05 07:15:04;;;;;;;3.35;1.85;;;;;;;9.64;61.34;97836.66;10572336;27;20071;-80
2021/11/05 07:20:26;;;;;;;2.97;1.75;;;;;;;9.54;61.79;97833.16;10613866;27;20035;-79
2021/11/05 07:25:47;;;;;;;3.28;1.80;;;;;;;9.96;60.44;97838.28;10585820;27;20047;-79
2021/11/05 07:31:08;;;;;;;2.65;1.92;;;;;;;10.66;59.00;97865.44;10599193;27;20125;-80
2021/11/05 07:36:29;;;;;;;3.80;2.10;;;;;;;11.30;58.53;97871.91;10570560;27;20049;-78
2021/11/05 07:41:51;;;;;;;2.90;1.50;;;;;;;12.35;57.77;97882.84;10582862;27;20061;-78
2021/11/05 07:47:13;;;;;;;2.13;1.75;;;;;;;16.46;52.40;97876.50;10583967;27;20058;-81
2021/11/05 07:52:37;;;;;;;1.98;1.48;;;;;;;17.82;44.88;97901.53;10585444;27;20096;-81
2021/11/05 07:57:58;;;;;;;2.10;1.88;;;;;;;20.95;40.07;97900.66;10582048;27;20080;-82
2021/11/05 08:03:21;;;;;;;1.70;1.27;;;;;;;26.69;36.95;97911.78;10555155;28;20046;-80
2021/11/05 08:08:42;;;;;;;2.95;1.30;;;;;;;24.16;31.41;97922.34;10555574;28;20062;-81
2021/11/05 08:14:05;;;;;;;2.53;1.55;;;;;;;19.26;35.09;97937.56;10561120;27;20043;-81
2021/11/05 08:19:26;;;;;;;2.55;1.50;;;;;;;15.64;39.29;97934.50;10597053;27;20043;-81
2021/11/05 08:24:51;;;;;;;2.50;1.80;;;;;;;14.00;42.33;97943.91;10610533;27;20038;-81
2021/11/05 08:30:22;;;;;;;3.75;2.90;;;;;;;13.02;44.23;97950.66;10597330;27;20035;-82
2021/11/05 08:35:49;;;;;;;2.00;1.65;;;;;;;13.08;44.98;97951.78;10584013;27;20114;-82
2021/11/05 08:41:16;;;;;;;2.90;2.17;;;;;;;13.21;45.07;97972.91;10597273;27;20039;-81
2021/11/05 08:46:38;;;;;;;2.78;2.00;;;;;;;13.39;44.98;97982.41;10610052;27;20042;-81
2021/11/05 08:52:00;;;;;;;2.63;2.15;;;;;;;13.83;44.83;97994.09;10592445;27;20047;-82
2021/11/05 08:57:21;;;;;;;4.03;2.88;;;;;;;14.85;43.89;98000.59;10609033;27;20039;-81
2021/11/05 09:02:43;;;;;;;3.95;2.88;;;;;;;17.07;41.88;98014.63;10581509;27;20423;-80
2021/11/05 09:08:08;;;;;;;2.35;1.85;;;;;;;17.82;39.06;98020.84;10596452;27;20046;-79
2021/11/05 09:13:30;;;;;;;2.78;2.17;;;;;;;19.56;37.53;98025.72;10567104;27;20042;-80
2021/11/05 09:18:51;;;;;;;2.35;1.42;;;;;;;20.36;35.84;98035.59;10580913;27;20377;-80
2021/11/05 09:24:14;;;;;;;2.10;1.70;;;;;;;19.10;36.70;98040.25;10580777;27;20138;-81
2021/11/05 09:29:35;;;;;;;3.35;1.98;;;;;;;17.79;37.76;98053.19;10566525;27;20035;-80
2021/11/05 09:34:56;;;;;;;2.08;1.45;;;;;;;15.86;39.13;98061.56;10580894;28;20057;-78
2021/11/05 09:40:22;;;;;;;2.78;1.60;;;;;;;14.35;41.49;98069.41;10551575;28;20046;-77
2021/11/05 09:45:46;;;;;;;2.03;1.83;;;;;;;13.64;43.35;98068.03;10566963;28;20152;-80
2021/11/05 09:51:08;;;;;;;2.60;1.73;;;;;;;13.15;43.76;98073.41;10552459;28;20051;-81
2021/11/05 09:56:29;;;;;;;1.98;1.70;;;;;;;12.81;44.68;98069.88;10570305;28;20431;-78
2021/11/05 10:01:51;;;;;;;2.75;1.85;;;;;;;12.32;45.03;98080.72;10580586;28;20427;-78
2021/11/05 10:07:12;;;;;;;4.15;2.30;;;;;;;12.29;46.07;98093.13;10566019;28;20080;-80
2021/11/05 10:12:33;;;;;;;2.83;2.30;;;;;;;12.06;47.16;98098.56;10573824;27;20046;-80
2021/11/05 10:18:26;;;;;;;3.15;2.30;;;;;;;11.68;49.55;98102.28;10559671;27;20062;-80
2021/11/05 10:23:47;;;;;;;2.85;2.33;;;;;;;11.54;49.46;98116.00;10581967;27;20058;-78
2021/11/05 10:29:08;;;;;;;2.83;1.92;;;;;;;11.96;50.47;98121.00;10587544;27;20042;-79
2021/11/05 10:34:53;;;;;;;2.77;2.03;;;;;;;12.13;50.53;98131.22;10578216;27;20039;-82
2021/11/05 10:40:16;;;;;;;4.22;2.55;;;;;;;11.91;50.53;98124.84;10571242;27;20039;-83
2021/11/05 10:45:40;;;;;;;3.05;2.15;;;;;;;11.61;51.37;98140.25;10573249;27;20043;-82
2021/11/05 10:51:03;;;;;;;;;;;;;;;11.55;53.68;98141.88;10601021;27;20035;-79
2021/11/05 10:56:26;;;;;;;3.63;2.05;;;;;;;11.52;53.25;98149.41;10600691;27;19923;-76
2021/11/05 11:01:47;;;;;;;5.55;2.45;;;;;;;11.85;53.72;98146.81;10572311;27;20035;-76
2021/11/05 11:07:08;;;;;;;3.97;2.65;;;;;;;12.50;53.26;98148.41;10571996;27;20041;-74
2021/11/05 11:12:33;;;;;;;3.08;2.40;;;;;;;12.71;51.91;98156.06;10557843;27;20350;-76
2021/11/05 11:17:54;;;;;;;4.22;2.38;;;;;;;12.66;52.74;98162.00;10599978;27;20051;-80
2021/11/05 11:23:16;;;;;;;2.75;2.20;;;;;;;12.80;52.48;98168.53;10584914;27;20039;-78
2021/11/05 11:28:37;;;;;;;2.63;2.00;;;;;;;13.03;52.71;98167.94;10599642;27;20038;-75
2021/11/05 11:34:03;;;;;;;2.03;1.80;;;;;;;13.03;52.67;98165.88;10588018;27;20043;-82
2021/11/05 11:39:25;;;;;;;2.20;1.75;;;;;;;12.79;53.21;98178.28;10586452;27;20035;-79
2021/11/05 11:44:46;;;;;;;2.25;1.70;;;;;;;12.40;53.47;98177.78;10571030;27;20042;-83
2021/11/05 11:50:37;;;;;;;2.67;1.60;;;;;;;12.21;54.55;98182.16;10584794;27;20102;-81
2021/11/05 11:56:02;;;;;;;2.97;1.60;;;;;;;11.68;54.84;98191.75;10585966;27;20042;-80
2021/11/05 12:01:26;;;;;;;3.33;1.80;;;;;;;11.35;55.86;98202.69;10584244;27;20481;-82
2021/11/05 12:06:47;;;;;;;1.52;1.20;;;;;;;11.29;56.42;98205.78;10584104;27;20035;-82
2021/11/05 12:12:22;;;;;;;2.15;1.02;;;;;;;11.31;56.93;98208.00;10611715;27;20084;-81
2021/11/05 12:17:46;;;;;;;0.87;0.40;;;;;;;11.41;56.39;98219.91;10611625;27;20062;-81
2021/11/05 12:23:18;;;;;;;2.20;0.52;;;;;;;11.44;56.41;98215.91;10612725;27;20049;-81
2021/11/05 12:28:41;;;;;;;2.00;0.45;;;;;;;11.46;56.08;98224.44;10568610;27;20035;-81
2021/11/05 12:34:21;;;;;;;1.13;0.40;;;;;;;11.43;56.62;98234.75;10581810;27;20043;-80
2021/11/05 12:39:42;;;;;;;2.30;0.50;;;;;;;11.42;56.59;98229.75;10610151;27;20035;-80
2021/11/05 12:45:05;;;;;;;1.35;0.60;;;;;;;11.34;56.61;98231.97;10582831;27;20035;-80
2021/11/05 12:50:32;;;;;;;2.35;0.40;;;;;;;11.33;56.77;98238.88;10553812;27;20039;-83
2021/11/05 12:55:53;;;;;;;1.63;0.40;;;;;;;11.28;56.88;98248.28;10596477;27;20594;-80
2021/11/05 13:01:16;;;;;;;1.00;0.40;;;;;;;11.28;57.18;98248.28;10567786;27;20035;-79
2021/11/05 13:06:41;;;;;;;1.52;0.52;;;;;;;11.30;57.23;98256.81;10595700;27;20110;-80
2021/11/05 13:12:08;;;;;;;1.60;0.52;;;;;;;11.32;57.35;98262.56;10595816;27;20116;-74
2021/11/05 13:17:38;;;;;;;2.00;0.50;;;;;;;11.28;57.57;98273.44;10581320;27;20413;-80
2021/11/05 13:23:01;;;;;;;3.33;0.50;;;;;;;11.17;57.42;98275.47;10580520;27;20461;-81
2021/11/05 13:28:23;;;;;;;0.70;0.30;;;;;;;10.91;58.06;98287.53;10581013;27;20035;-75
2021/11/05 13:33:46;;;;;;;2.05;0.50;;;;;;;10.53;58.53;98285.34;10566399;28;20031;-74
2021/11/05 13:39:07;;;;;;;1.58;0.50;;;;;;;10.32;58.87;98291.41;10586025;28;20031;-74
2021/11/05 13:44:28;;;;;;;0.93;0.52;;;;;;;10.28;59.33;98299.47;10597341;27;20027;-79
2021/11/05 13:50:11;;;;;;;1.33;0.60;;;;;;;10.33;59.53;98312.44;10571330;27;20031;-76
2021/11/05 13:55:38;;;;;;;1.80;0.88;;;;;;;10.32;59.84;98311.69;10569221;27;20058;-79
2021/11/05 14:00:59;;;;;;;2.63;0.57;;;;;;;10.22;59.69;98319.28;10602418;27;20115;-76
2021/11/05 14:06:21;;;;;;;1.70;0.60;;;;;;;10.21;59.87;98328.19;10545179;27;20114;-77
2021/11/05 14:11:51;;;;;;;1.35;0.60;;;;;;;10.17;59.97;98325.84;10588070;27;20039;-77
2021/11/05 14:17:14;;;;;;;1.65;0.75;;;;;;;10.14;60.29;98335.38;10601875;27;20055;-76
2021/11/05 14:22:40;;;;;;;2.42;0.75;;;;;;;10.12;60.20;98334.44;10579662;27;20050;-79
2021/11/05 14:28:01;;;;;;;2.83;1.10;;;;;;;10.02;60.18;98332.34;10561139;27;20031;-76
2021/11/05 14:33:22;;;;;;;3.65;1.13;;;;;;;9.93;60.63;98338.59;10577599;27;20078;-76
2021/11/05 14:38:56;;;;;;;1.77;1.27;;;;;;;9.85;60.80;98351.91;10577267;27;20042;-77
2021/11/05 14:44:22;;;;;;;1.85;0.90;;;;;;;9.75;60.76;98353.91;10586028;27;20031;-78
2021/11/05 14:49:43;;;;;;;2.30;1.23;;;;;;;9.64;60.97;98368.31;10581892;27;20048;-79
2021/11/05 14:55:06;;;;;;;1.90;0.90;;;;;;;9.51;61.58;98363.81;10597741;27;20039;-76
2021/11/05 15:00:28;;;;;;;2.92;1.20;;;;;;;9.40;61.56;98370.59;10566311;27;20046;-76
2021/11/05 15:06:08;;;;;;;3.58;1.63;;;;;;;9.28;61.79;98377.97;10598702;27;20481;-75
2021/11/05 15:11:48;;;;;;;5.60;2.45;;;;;;;9.14;62.64;98393.50;10606634;27;20050;-74
2021/11/05 15:17:09;;;;;;;4.78;2.80;;;;;;;9.03;62.65;98396.75;10585635;27;20059;-75
2021/11/05 15:22:41;;;;;;;4.43;2.53;;;;;;;8.93;62.53;98399.41;10599949;27;20457;-76
2021/11/05 15:29:30;;;;;;;4.22;1.88;;;;;;;8.80;62.61;98408.06;10619314;27;20099;-77
2021/11/05 15:35:22;;;;;;;2.15;0.80;;;;;;;8.69;62.86;98409.25;10596821;27;20496;-77
2021/11/05 15:41:38;;;;;;;2.10;1.10;;;;;;;8.55;62.85;98422.69;10613913;27;20497;-75
2021/11/05 15:47:25;;;;;;;3.88;1.90;;;;;;;8.46;63.17;98430.88;10620313;27;20133;-75
2021/11/05 15:53:00;;;;;;;3.53;1.60;;;;;;;8.39;63.82;98435.19;10584246;27;20100;-80
2021/11/05 15:58:37;;;;;;;1.83;1.02;;;;;;;8.36;63.78;98444.66;10455151;28;20044;-81
2021/11/05 16:03:58;;;;;;;1.85;0.98;;;;;;;8.32;64.26;98444.28;10428106;28;20037;-80
2021/11/05 16:09:20;;;;;;;1.98;1.17;;;;;;;8.27;63.92;98450.78;10413374;28;20045;-82
2021/11/05 16:14:41;;;;;;;2.03;0.82;;;;;;;8.22;64.50;98452.50;10413295;28;20056;-82
2021/11/05 16:20:05;;;;;;;2.28;1.00;;;;;;;8.15;64.19;98452.50;10426919;28;20068;-83
2021/11/05 16:25:27;;;;;;;4.15;1.98;;;;;;;8.06;64.48;98464.22;10414294;28;20047;-80
2021/11/05 16:30:48;;;;;;;4.32;1.88;;;;;;;7.99;64.22;98460.16;10554660;28;20043;-81
2021/11/05 16:36:09;;;;;;;3.65;1.60;;;;;;;7.96;64.93;98458.50;10554389;28;20039;-79
2021/11/05 16:41:30;;;;;;;2.67;1.52;;;;;;;7.92;64.63;98458.91;10540154;28;20085;-82
2021/11/05 16:46:52;;;;;;;3.28;1.48;;;;;;;7.75;64.84;98472.63;10575937;27;20037;-81
2021/11/05 16:52:15;;;;;;;3.47;1.65;;;;;;;7.59;65.36;98474.69;10562422;27;20059;-79
2021/11/05 16:57:35;;;;;;;2.60;1.42;;;;;;;7.45;65.20;98479.72;10582793;27;20031;-74
2021/11/05 17:02:58;;;;;;;4.60;1.88;;;;;;;7.34;66.04;98480.09;10579981;27;20472;-74
2021/11/05 17:08:19;;;;;;;2.17;1.38;;;;;;;7.25;66.22;98488.97;10538667;28;20051;-81
2021/11/05 17:13:41;;;;;;;2.55;1.10;;;;;;;7.18;66.17;98496.00;10538824;28;20074;-75
2021/11/05 17:19:06;;;;;;;4.35;1.95;;;;;;;7.11;66.46;98496.72;10524393;28;20043;-76
2021/11/05 17:24:28;;;;;;;1.77;1.10;;;;;;;7.08;66.78;98510.97;10526971;28;20493;-75
2021/11/05 17:29:50;;;;;;;3.40;1.40;;;;;;;7.08;67.21;98508.94;10539092;28;20040;-78
2021/11/05 17:35:12;;;;;;;3.88;1.85;;;;;;;6.98;67.20;98527.44;10539046;28;20355;-83
2021/11/05 17:40:34;;;;;;;4.65;2.30;;;;;;;6.94;66.79;98532.59;10552568;28;20111;-80
2021/11/05 17:45:56;;;;;;;3.45;2.00;;;;;;;6.93;67.31;98539.44;10538739;28;20059;-80
2021/11/05 17:51:17;;;;;;;3.33;1.55;;;;;;;6.88;67.49;98545.91;10538226;28;20046;-82
2021/11/05 17:56:41;;;;;;;3.00;1.92;;;;;;;6.82;67.81;98539.78;10539008;28;20040;-81
2021/11/05 18:02:02;;;;;;;3.88;1.63;;;;;;;6.82;68.64;98565.50;10567762;28;20046;-80
2021/11/05 18:07:23;;;;;;;2.63;1.58;;;;;;;6.80;69.09;98564.56;10580575;28;20110;-83
2021/11/05 18:12:45;;;;;;;5.22;2.50;;;;;;;6.77;69.05;98560.13;10580458;28;20047;-82
2021/11/05 18:18:07;;;;;;;3.15;1.95;;;;;;;6.74;68.79;98577.84;10579806;28;20051;-77
2021/11/05 18:23:29;;;;;;;4.05;1.80;;;;;;;6.67;69.24;98587.63;10579771;28;20111;-77
2021/11/05 18:28:53;;;;;;;3.40;1.98;;;;;;;6.68;69.30;98583.56;10565849;27;20044;-80
2021/11/05 18:34:16;;;;;;;4.33;2.00;;;;;;;6.73;68.99;98593.00;10574173;27;20035;-77
2021/11/05 18:39:38;;;;;;;6.07;2.65;;;;;;;6.91;69.60;98600.31;10574174;27;20073;-80
2021/11/05 18:45:01;;;;;;;4.40;2.63;;;;;;;7.09;68.87;98607.59;10601276;27;20473;-81
2021/11/05 18:50:23;;;;;;;3.22;2.33;;;;;;;7.21;68.86;98610.03;10587634;27;20114;-78
2021/11/05 18:55:44;;;;;;;4.95;2.72;;;;;;;7.32;68.85;98609.66;10601022;27;20035;-79
2021/11/05 19:01:06;;;;;;;4.30;2.92;;;;;;;7.43;68.87;98626.75;10586999;27;20039;-77
2021/11/05 19:06:27;;;;;;;5.82;2.40;;;;;;;7.51;68.83;98623.97;10555596;27;20477;-78
2021/11/05 19:11:48;;;;;;;4.88;2.70;;;;;;;7.58;68.57;98628.81;10558075;27;20062;-75
2021/11/05 19:17:10;;;;;;;3.30;2.10;;;;;;;7.61;68.45;98627.69;10571836;27;20094;-74
2021/11/05 19:22:36;;;;;;;4.65;2.80;;;;;;;7.65;68.15;98636.41;10568460;27;20545;-83
2021/11/05 19:27:58;;;;;;;3.10;2.00;;;;;;;7.64;68.09;98643.28;10585491;27;20035;-75
2021/11/05 19:33:19;;;;;;;3.30;2.00;;;;;;;7.67;68.22;98636.59;10599581;27;20039;-79
2021/11/05 19:38:41;;;;;;;3.70;2.40;;;;;;;7.67;68.37;98644.94;10599594;27;20047;-75
2021/11/05 19:44:04;;;;;;;4.85;2.55;;;;;;;7.68;68.42;98640.13;10570306;27;20039;-78
2021/11/05 19:49:26;;;;;;;4.47;2.55;;;;;;;7.65;68.42;98647.53;10613212;27;20046;-78
2021/11/05 19:54:48;;;;;;;4.05;2.33;;;;;;;7.65;68.44;98664.19;10571001;27;20066;-79
2021/11/05 20:00:14;;;;;;;4.35;2.65;;;;;;;7.66;68.49;98662.16;10584086;27;20035;-81
2021/11/05 20:05:35;;;;;;;4.60;2.90;;;;;;;7.62;68.68;98668.06;10570321;27;20039;-77
2021/11/05 20:10:58;;;;;;;5.88;2.78;;;;;;;7.63;68.75;98669.56;10570330;27;20042;-77
2021/11/05 20:16:19;;;;;;;3.20;2.25;;;;;;;7.58;68.66;98678.81;10570057;27;20072;-79
2021/11/05 20:21:43;;;;;;;4.10;2.60;;;;;;;7.52;68.60;98692.13;10598021;27;20043;-79
2021/11/05 20:27:05;;;;;;;2.53;1.87;;;;;;;7.51;68.82;98692.69;10583707;27;20054;-78
2021/11/05 20:32:26;;;;;;;3.17;2.28;;;;;;;7.50;68.53;98699.53;10552709;27;20047;-79
2021/11/05 20:37:47;;;;;;;3.58;2.10;;;;;;;7.47;68.73;98698.59;10596671;27;20374;-78
2021/11/05 20:43:09;;;;;;;3.72;2.15;;;;;;;7.33;68.68;98716.69;10569951;27;20435;-80
2021/11/05 20:48:31;;;;;;;3.70;2.53;;;;;;;7.32;69.17;98709.66;10568556;27;20076;-78
2021/11/05 20:53:52;;;;;;;4.15;2.28;;;;;;;7.37;69.14;98714.31;10581357;27;20041;-80
2021/11/05 20:59:14;;;;;;;2.83;1.88;;;;;;;7.36;68.90;98721.16;10580689;27;20342;-74
2021/11/05 21:04:42;;;;;;;4.32;2.42;;;;;;;7.37;69.07;98712.28;10595085;27;20095;-74
2021/11/05 21:10:05;;;;;;;3.50;2.40;;;;;;;7.43;69.00;98723.97;10568326;27;20035;-76
2021/11/05 21:15:27;;;;;;;3.80;2.28;;;;;;;7.46;68.67;98731.22;10595655;27;20047;-74
2021/11/05 21:20:48;;;;;;;3.90;2.33;;;;;;;7.49;69.03;98740.47;10578893;27;20393;-74
2021/11/05 21:26:10;;;;;;;5.32;2.38;;;;;;;7.45;68.68;98745.66;10566494;27;20040;-75
2021/11/05 21:31:32;;;;;;;4.13;2.88;;;;;;;7.49;68.61;98746.03;10549969;27;20469;-76
2021/11/05 21:37:10;;;;;;;3.33;2.30;;;;;;;7.44;68.98;98753.25;10567998;28;20051;-75
2021/11/05 21:42:33;;;;;;;4.43;2.38;;;;;;;7.45;68.66;98753.97;10566838;28;20488;-74
2021/11/05 21:47:54;;;;;;;4.10;2.67;;;;;;;7.47;68.62;98763.25;10594702;28;20120;-75
2021/11/05 21:53:16;;;;;;;5.45;2.45;;;;;;;7.45;68.23;98765.84;10552534;28;20462;-75
2021/11/05 21:58:37;;;;;;;4.47;2.70;;;;;;;7.47;68.54;98768.81;10565921;28;20031;-75
2021/11/05 22:03:59;;;;;;;3.70;2.47;;;;;;;7.49;68.78;98771.03;10550070;27;20107;-74
2021/11/05 22:09:22;;;;;;;5.18;2.70;;;;;;;7.46;68.57;98774.91;10602455;27;20050;-74
2021/11/05 22:14:43;;;;;;;5.25;2.38;;;;;;;7.40;68.57;98782.66;10588191;27;20116;-75
2021/11/05 22:20:05;;;;;;;4.22;2.83;;;;;;;7.41;68.39;98789.69;10587804;27;20488;-74
2021/11/05 22:25:28;;;;;;;4.32;2.40;;;;;;;7.38;68.56;98790.78;10587676;27;20046;-75
2021/11/05 22:30:49;;;;;;;3.95;2.35;;;;;;;7.39;68.28;98786.72;10570661;27;20051;-75
2021/11/05 22:36:11;;;;;;;5.15;3.00;;;;;;;7.41;68.42;98800.81;10573538;27;20069;-75
2021/11/05 22:41:32;;;;;;;4.65;2.97;;;;;;;7.41;68.47;98800.81;10559265;27;20080;-75
2021/11/05 22:46:54;;;;;;;5.50;2.85;;;;;;;7.41;68.47;98798.03;10569940;27;20130;-75
2021/11/05 22:52:15;;;;;;;4.35;2.92;;;;;;;7.40;68.50;98800.06;10586703;27;20114;-75
2021/11/05 22:57:36;;;;;;;4.78;2.92;;;;;;;7.39;68.58;98806.16;10586506;27;20122;-75
2021/11/05 23:02:58;;;;;;;3.35;2.38;;;;;;;7.36;68.58;98810.78;10572302;27;20454;-76
2021/11/05 23:08:22;;;;;;;3.60;2.83;;;;;;;7.35;68.50;98808.56;10555595;27;20047;-74
2021/11/05 23:13:48;;;;;;;4.57;3.03;;;;;;;7.35;68.52;98803.00;10582897;27;20496;-75
2021/11/05 23:19:10;;;;;;;4.50;3.03;;;;;;;7.34;68.71;98807.81;10600184;27;20035;-74
2021/11/05 23:24:33;;;;;;;4.10;2.95;;;;;;;7.33;68.48;98808.34;10571358;27;20038;-76
2021/11/05 23:29:55;;;;;;;5.93;3.28;;;;;;;7.31;68.48;98819.28;10585869;27;20046;-76
2021/11/05 23:35:16;;;;;;;4.85;3.40;;;;;;;7.31;68.65;98808.91;10584805;27;20058;-74
2021/11/05 23:40:38;;;;;;;4.10;3.28;;;;;;;7.31;68.80;98806.13;10598744;27;20354;-75
2021/11/05 23:46:00;;;;;;;4.15;3.40;;;;;;;7.31;68.72;98822.03;10557059;27;20039;-75
2021/11/05 23:51:22;;;;;;;4.93;3.60;;;;;;;7.32;68.47;98827.06;10584747;27;20080;-75
2021/11/05 23:56:44;;;;;;;5.65;3.25;;;;;;;7.35;68.84;98831.53;10584560;27;20453;-76
